Terminal Aerodrome Forecast
Issued by NWS Charleston, WV

Current Version | Previous Version | Graphics & Text | Print | Product List | Glossary On
Versions: 1 2 3 4 5 6 7 8 9 10 11 12 13 14 15 16 17 18 19 20 21
000
FTUS41 KRLX 240900 AAA
TAFCRW
TAF AMD
KCRW 240901Z 2409/2506 15006KT P6SM SCT100 BKN120
     FM241400 16006KT P6SM VCSH BKN035
     FM241700 17010G19KT P6SM BKN040
     FM241900 17011G18KT P6SM SHRA BKN040
     FM242000 18012G18KT 3SM SHRA BR VCTS BKN040CB
     FM250200 22013G20KT P6SM OVC035=

USA.gov is the U.S. government's official web portal to all federal, state and local government web resources and services.